sensor_id;sensor_type;location;lat;lon;timestamp;P1;durP1;ratioP1;P2;durP2;ratioP2
505;SDS011;551;48.524;9.056;2022-11-24T00:01:03;7.10;;;2.73;;
505;SDS011;551;48.524;9.056;2022-11-24T00:03:33;10.20;;;3.10;;
505;SDS011;551;48.524;9.056;2022-11-24T00:06:06;5.97;;;2.50;;
505;SDS011;551;48.524;9.056;2022-11-24T00:08:34;7.30;;;3.07;;
505;SDS011;551;48.524;9.056;2022-11-24T00:11:03;16.27;;;3.27;;
505;SDS011;551;48.524;9.056;2022-11-24T00:13:33;4.30;;;3.90;;
505;SDS011;551;48.524;9.056;2022-11-24T00:16:03;7.80;;;2.57;;
505;SDS011;551;48.524;9.056;2022-11-24T00:18:40;6.10;;;2.70;;
505;SDS011;551;48.524;9.056;2022-11-24T00:21:06;6.37;;;2.57;;
505;SDS011;551;48.524;9.056;2022-11-24T00:23:32;4.67;;;2.57;;
505;SDS011;551;48.524;9.056;2022-11-24T00:26:02;9.20;;;2.03;;
505;SDS011;551;48.524;9.056;2022-11-24T00:28:31;7.83;;;2.37;;
505;SDS011;551;48.524;9.056;2022-11-24T00:30:57;9.23;;;3.33;;
505;SDS011;551;48.524;9.056;2022-11-24T00:33:22;8.47;;;2.30;;
505;SDS011;551;48.524;9.056;2022-11-24T00:35:55;5.03;;;2.13;;
505;SDS011;551;48.524;9.056;2022-11-24T00:38:21;7.77;;;2.83;;
505;SDS011;551;48.524;9.056;2022-11-24T00:40:46;6.30;;;2.17;;
505;SDS011;551;48.524;9.056;2022-11-24T00:43:12;5.27;;;2.27;;
505;SDS011;551;48.524;9.056;2022-11-24T00:45:37;8.47;;;3.60;;
505;SDS011;551;48.524;9.056;2022-11-24T00:48:03;5.97;;;2.47;;
505;SDS011;551;48.524;9.056;2022-11-24T00:50:29;7.80;;;2.70;;
505;SDS011;551;48.524;9.056;2022-11-24T00:52:54;3.93;;;2.43;;
505;SDS011;551;48.524;9.056;2022-11-24T00:55:19;10.33;;;2.50;;
505;SDS011;551;48.524;9.056;2022-11-24T00:57:45;8.87;;;2.47;;
505;SDS011;551;48.524;9.056;2022-11-24T01:00:11;3.87;;;2.10;;
505;SDS011;551;48.524;9.056;2022-11-24T01:02:37;7.73;;;3.37;;
505;SDS011;551;48.524;9.056;2022-11-24T01:05:03;8.57;;;2.73;;
505;SDS011;551;48.524;9.056;2022-11-24T01:07:29;8.03;;;2.27;;
505;SDS011;551;48.524;9.056;2022-11-24T01:09:55;6.90;;;2.07;;
505;SDS011;551;48.524;9.056;2022-11-24T01:12:21;3.83;;;2.30;;
505;SDS011;551;48.524;9.056;2022-11-24T01:14:46;8.33;;;2.07;;
505;SDS011;551;48.524;9.056;2022-11-24T01:17:12;4.70;;;2.03;;
505;SDS011;551;48.524;9.056;2022-11-24T01:19:37;8.77;;;3.13;;
505;SDS011;551;48.524;9.056;2022-11-24T01:22:02;5.67;;;2.10;;
505;SDS011;551;48.524;9.056;2022-11-24T01:24:28;6.80;;;3.20;;
505;SDS011;551;48.524;9.056;2022-11-24T01:26:54;3.77;;;2.10;;
505;SDS011;551;48.524;9.056;2022-11-24T01:29:19;5.47;;;2.57;;
505;SDS011;551;48.524;9.056;2022-11-24T01:31:45;5.40;;;2.50;;
505;SDS011;551;48.524;9.056;2022-11-24T01:34:10;6.50;;;1.97;;
505;SDS011;551;48.524;9.056;2022-11-24T01:36:37;7.63;;;2.27;;
505;SDS011;551;48.524;9.056;2022-11-24T01:39:03;3.80;;;3.13;;
505;SDS011;551;48.524;9.056;2022-11-24T01:41:28;5.93;;;2.40;;
505;SDS011;551;48.524;9.056;2022-11-24T01:43:54;5.97;;;2.37;;
505;SDS011;551;48.524;9.056;2022-11-24T01:46:33;10.33;;;2.43;;
505;SDS011;551;48.524;9.056;2022-11-24T01:51:41;5.93;;;2.27;;
505;SDS011;551;48.524;9.056;2022-11-24T01:54:13;4.10;;;1.77;;
505;SDS011;551;48.524;9.056;2022-11-24T01:56:44;7.17;;;2.73;;
505;SDS011;551;48.524;9.056;2022-11-24T01:59:12;7.00;;;2.00;;
505;SDS011;551;48.524;9.056;2022-11-24T02:01:39;6.03;;;2.40;;
505;SDS011;551;48.524;9.056;2022-11-24T02:04:07;3.43;;;2.00;;
505;SDS011;551;48.524;9.056;2022-11-24T02:06:36;4.13;;;2.07;;
505;SDS011;551;48.524;9.056;2022-11-24T02:09:07;3.47;;;1.80;;
505;SDS011;551;48.524;9.056;2022-11-24T02:11:41;5.30;;;2.00;;
505;SDS011;551;48.524;9.056;2022-11-24T02:14:09;3.10;;;2.10;;
505;SDS011;551;48.524;9.056;2022-11-24T02:16:37;2.40;;;1.73;;
505;SDS011;551;48.524;9.056;2022-11-24T02:19:08;10.57;;;2.40;;
505;SDS011;551;48.524;9.056;2022-11-24T02:21:43;5.97;;;2.33;;
505;SDS011;551;48.524;9.056;2022-11-24T02:27:01;7.83;;;2.20;;
505;SDS011;551;48.524;9.056;2022-11-24T02:29:26;5.47;;;2.23;;
505;SDS011;551;48.524;9.056;2022-11-24T02:31:54;5.80;;;1.90;;
505;SDS011;551;48.524;9.056;2022-11-24T02:34:24;2.50;;;2.07;;
505;SDS011;551;48.524;9.056;2022-11-24T02:36:49;7.30;;;2.40;;
505;SDS011;551;48.524;9.056;2022-11-24T02:39:15;3.70;;;2.17;;
505;SDS011;551;48.524;9.056;2022-11-24T02:41:41;2.73;;;1.93;;
505;SDS011;551;48.524;9.056;2022-11-24T02:44:13;8.07;;;2.10;;
505;SDS011;551;48.524;9.056;2022-11-24T02:46:41;3.37;;;2.47;;
505;SDS011;551;48.524;9.056;2022-11-24T02:49:07;6.00;;;2.90;;
505;SDS011;551;48.524;9.056;2022-11-24T02:51:32;8.33;;;2.47;;
505;SDS011;551;48.524;9.056;2022-11-24T02:53:58;6.63;;;1.97;;
505;SDS011;551;48.524;9.056;2022-11-24T02:56:24;3.70;;;2.60;;
505;SDS011;551;48.524;9.056;2022-11-24T02:58:50;9.20;;;1.93;;
505;SDS011;551;48.524;9.056;2022-11-24T03:01:17;5.37;;;2.30;;
505;SDS011;551;48.524;9.056;2022-11-24T03:03:42;4.63;;;2.57;;
505;SDS011;551;48.524;9.056;2022-11-24T03:06:08;2.83;;;2.17;;
505;SDS011;551;48.524;9.056;2022-11-24T03:08:33;6.03;;;2.43;;
505;SDS011;551;48.524;9.056;2022-11-24T03:11:00;5.43;;;2.00;;
505;SDS011;551;48.524;9.056;2022-11-24T03:13:26;5.63;;;2.60;;
505;SDS011;551;48.524;9.056;2022-11-24T03:15:51;2.70;;;1.83;;
505;SDS011;551;48.524;9.056;2022-11-24T03:18:17;6.03;;;2.10;;
505;SDS011;551;48.524;9.056;2022-11-24T03:20:42;5.23;;;1.93;;
505;SDS011;551;48.524;9.056;2022-11-24T03:23:08;2.30;;;2.10;;
505;SDS011;551;48.524;9.056;2022-11-24T03:25:34;5.73;;;2.30;;
505;SDS011;551;48.524;9.056;2022-11-24T03:27:59;5.33;;;1.80;;
505;SDS011;551;48.524;9.056;2022-11-24T03:30:25;2.50;;;2.27;;
505;SDS011;551;48.524;9.056;2022-11-24T03:32:51;3.13;;;1.73;;
505;SDS011;551;48.524;9.056;2022-11-24T03:35:20;4.73;;;2.33;;
505;SDS011;551;48.524;9.056;2022-11-24T03:37:45;4.83;;;2.00;;
505;SDS011;551;48.524;9.056;2022-11-24T03:40:11;7.00;;;2.43;;
505;SDS011;551;48.524;9.056;2022-11-24T03:42:37;2.90;;;1.80;;
505;SDS011;551;48.524;9.056;2022-11-24T03:45:03;3.17;;;2.20;;
505;SDS011;551;48.524;9.056;2022-11-24T03:47:29;5.07;;;2.20;;
505;SDS011;551;48.524;9.056;2022-11-24T03:49:55;4.17;;;2.27;;
505;SDS011;551;48.524;9.056;2022-11-24T03:52:20;5.53;;;1.97;;
505;SDS011;551;48.524;9.056;2022-11-24T03:54:46;6.73;;;1.87;;
505;SDS011;551;48.524;9.056;2022-11-24T03:57:12;2.73;;;1.90;;
505;SDS011;551;48.524;9.056;2022-11-24T03:59:38;4.07;;;1.97;;
505;SDS011;551;48.524;9.056;2022-11-24T04:02:03;4.13;;;2.60;;
505;SDS011;551;48.524;9.056;2022-11-24T04:04:29;5.30;;;1.93;;
505;SDS011;551;48.524;9.056;2022-11-24T04:06:55;5.47;;;2.13;;
505;SDS011;551;48.524;9.056;2022-11-24T04:09:20;2.90;;;2.30;;
505;SDS011;551;48.524;9.056;2022-11-24T04:11:46;7.00;;;2.20;;
505;SDS011;551;48.524;9.056;2022-11-24T04:14:30;2.70;;;1.70;;
505;SDS011;551;48.524;9.056;2022-11-24T04:16:55;3.47;;;2.00;;
505;SDS011;551;48.524;9.056;2022-11-24T04:19:21;5.43;;;2.40;;
505;SDS011;551;48.524;9.056;2022-11-24T04:21:46;3.57;;;2.13;;
505;SDS011;551;48.524;9.056;2022-11-24T04:24:12;2.40;;;2.17;;
505;SDS011;551;48.524;9.056;2022-11-24T04:26:38;2.90;;;2.27;;
505;SDS011;551;48.524;9.056;2022-11-24T04:29:04;4.73;;;2.20;;
505;SDS011;551;48.524;9.056;2022-11-24T04:31:29;4.93;;;1.70;;
505;SDS011;551;48.524;9.056;2022-11-24T04:33:55;3.30;;;1.90;;
505;SDS011;551;48.524;9.056;2022-11-24T04:36:20;6.40;;;2.07;;
505;SDS011;551;48.524;9.056;2022-11-24T04:38:46;2.83;;;2.20;;
505;SDS011;551;48.524;9.056;2022-11-24T04:41:11;3.20;;;2.10;;
505;SDS011;551;48.524;9.056;2022-11-24T04:43:37;6.53;;;2.03;;
505;SDS011;551;48.524;9.056;2022-11-24T04:46:02;3.70;;;2.30;;
505;SDS011;551;48.524;9.056;2022-11-24T04:48:28;3.53;;;2.53;;
505;SDS011;551;48.524;9.056;2022-11-24T04:50:53;2.23;;;2.03;;
505;SDS011;551;48.524;9.056;2022-11-24T04:53:19;5.93;;;2.53;;
505;SDS011;551;48.524;9.056;2022-11-24T04:55:44;3.03;;;2.50;;
505;SDS011;551;48.524;9.056;2022-11-24T04:58:10;2.73;;;2.07;;
505;SDS011;551;48.524;9.056;2022-11-24T05:00:36;2.60;;;1.60;;
505;SDS011;551;48.524;9.056;2022-11-24T05:03:02;5.53;;;2.10;;
505;SDS011;551;48.524;9.056;2022-11-24T05:05:28;2.10;;;1.60;;
505;SDS011;551;48.524;9.056;2022-11-24T05:07:53;5.83;;;2.27;;
505;SDS011;551;48.524;9.056;2022-11-24T05:10:19;5.20;;;1.90;;
505;SDS011;551;48.524;9.056;2022-11-24T05:13:04;5.30;;;2.50;;
505;SDS011;551;48.524;9.056;2022-11-24T05:15:33;6.40;;;2.00;;
505;SDS011;551;48.524;9.056;2022-11-24T05:18:02;6.13;;;2.90;;
505;SDS011;551;48.524;9.056;2022-11-24T05:20:31;6.97;;;2.70;;
505;SDS011;551;48.524;9.056;2022-11-24T05:23:04;3.00;;;2.07;;
505;SDS011;551;48.524;9.056;2022-11-24T05:25:31;2.00;;;1.80;;
505;SDS011;551;48.524;9.056;2022-11-24T05:28:04;2.70;;;1.80;;
505;SDS011;551;48.524;9.056;2022-11-24T05:30:33;3.50;;;2.07;;
505;SDS011;551;48.524;9.056;2022-11-24T05:33:10;2.00;;;1.90;;
505;SDS011;551;48.524;9.056;2022-11-24T05:35:43;4.80;;;2.00;;
505;SDS011;551;48.524;9.056;2022-11-24T05:38:08;4.83;;;2.43;;
505;SDS011;551;48.524;9.056;2022-11-24T05:40:34;7.60;;;2.03;;
505;SDS011;551;48.524;9.056;2022-11-24T05:43:00;4.80;;;2.20;;
505;SDS011;551;48.524;9.056;2022-11-24T05:45:25;3.07;;;1.87;;
505;SDS011;551;48.524;9.056;2022-11-24T05:47:51;3.40;;;1.87;;
505;SDS011;551;48.524;9.056;2022-11-24T05:50:17;3.40;;;2.00;;
505;SDS011;551;48.524;9.056;2022-11-24T05:52:45;2.63;;;1.70;;
505;SDS011;551;48.524;9.056;2022-11-24T05:55:11;4.20;;;2.30;;
505;SDS011;551;48.524;9.056;2022-11-24T05:57:38;3.10;;;2.00;;
505;SDS011;551;48.524;9.056;2022-11-24T06:00:07;2.80;;;1.90;;
505;SDS011;551;48.524;9.056;2022-11-24T06:02:33;5.10;;;1.80;;
505;SDS011;551;48.524;9.056;2022-11-24T06:04:59;2.20;;;2.00;;
505;SDS011;551;48.524;9.056;2022-11-24T06:07:24;5.40;;;2.13;;
505;SDS011;551;48.524;9.056;2022-11-24T06:09:50;5.53;;;2.03;;
505;SDS011;551;48.524;9.056;2022-11-24T06:12:16;5.03;;;2.13;;
505;SDS011;551;48.524;9.056;2022-11-24T06:14:41;3.77;;;1.70;;
505;SDS011;551;48.524;9.056;2022-11-24T06:17:08;5.77;;;2.63;;
505;SDS011;551;48.524;9.056;2022-11-24T06:19:34;3.83;;;2.30;;
505;SDS011;551;48.524;9.056;2022-11-24T06:21:59;4.10;;;2.90;;
505;SDS011;551;48.524;9.056;2022-11-24T06:24:25;6.77;;;2.80;;
505;SDS011;551;48.524;9.056;2022-11-24T06:26:50;4.60;;;2.63;;
505;SDS011;551;48.524;9.056;2022-11-24T06:29:16;5.70;;;2.90;;
505;SDS011;551;48.524;9.056;2022-11-24T06:31:42;3.80;;;2.70;;
505;SDS011;551;48.524;9.056;2022-11-24T06:34:07;4.10;;;2.33;;
505;SDS011;551;48.524;9.056;2022-11-24T06:36:35;10.13;;;2.87;;
505;SDS011;551;48.524;9.056;2022-11-24T06:39:02;4.83;;;3.17;;
505;SDS011;551;48.524;9.056;2022-11-24T06:41:29;7.00;;;3.27;;
505;SDS011;551;48.524;9.056;2022-11-24T06:43:55;2.90;;;2.70;;
505;SDS011;551;48.524;9.056;2022-11-24T06:46:21;5.97;;;3.83;;
505;SDS011;551;48.524;9.056;2022-11-24T06:48:46;3.33;;;2.90;;
505;SDS011;551;48.524;9.056;2022-11-24T06:51:14;3.73;;;2.93;;
505;SDS011;551;48.524;9.056;2022-11-24T06:53:40;4.30;;;3.33;;
505;SDS011;551;48.524;9.056;2022-11-24T06:56:07;5.70;;;4.00;;
505;SDS011;551;48.524;9.056;2022-11-24T06:58:34;5.73;;;3.30;;
505;SDS011;551;48.524;9.056;2022-11-24T07:01:05;5.13;;;3.63;;
505;SDS011;551;48.524;9.056;2022-11-24T07:03:30;5.67;;;3.27;;
505;SDS011;551;48.524;9.056;2022-11-24T07:05:56;11.17;;;3.40;;
505;SDS011;551;48.524;9.056;2022-11-24T07:08:22;9.27;;;4.43;;
505;SDS011;551;48.524;9.056;2022-11-24T07:10:48;4.70;;;3.43;;
505;SDS011;551;48.524;9.056;2022-11-24T07:13:13;5.20;;;3.67;;
505;SDS011;551;48.524;9.056;2022-11-24T07:15:39;4.30;;;3.90;;
505;SDS011;551;48.524;9.056;2022-11-24T07:18:04;6.57;;;4.23;;
505;SDS011;551;48.524;9.056;2022-11-24T07:20:30;8.93;;;4.07;;
505;SDS011;551;48.524;9.056;2022-11-24T07:22:56;7.47;;;4.70;;
505;SDS011;551;48.524;9.056;2022-11-24T07:25:22;6.90;;;4.57;;
505;SDS011;551;48.524;9.056;2022-11-24T07:27:48;7.23;;;5.50;;
505;SDS011;551;48.524;9.056;2022-11-24T07:30:13;8.43;;;6.17;;
505;SDS011;551;48.524;9.056;2022-11-24T07:32:39;13.40;;;6.60;;
505;SDS011;551;48.524;9.056;2022-11-24T07:35:05;14.03;;;5.73;;
505;SDS011;551;48.524;9.056;2022-11-24T07:37:30;7.07;;;3.90;;
505;SDS011;551;48.524;9.056;2022-11-24T07:39:56;8.73;;;4.93;;
505;SDS011;551;48.524;9.056;2022-11-24T07:42:21;7.00;;;4.17;;
505;SDS011;551;48.524;9.056;2022-11-24T07:44:47;12.33;;;4.13;;
505;SDS011;551;48.524;9.056;2022-11-24T07:47:12;6.60;;;3.50;;
505;SDS011;551;48.524;9.056;2022-11-24T07:49:38;4.80;;;3.57;;
505;SDS011;551;48.524;9.056;2022-11-24T07:52:03;11.23;;;4.10;;
505;SDS011;551;48.524;9.056;2022-11-24T07:54:29;7.47;;;3.80;;
505;SDS011;551;48.524;9.056;2022-11-24T07:56:55;10.37;;;5.03;;
505;SDS011;551;48.524;9.056;2022-11-24T07:59:21;7.40;;;4.37;;
505;SDS011;551;48.524;9.056;2022-11-24T08:01:46;5.00;;;3.50;;
505;SDS011;551;48.524;9.056;2022-11-24T08:04:11;11.77;;;3.20;;
505;SDS011;551;48.524;9.056;2022-11-24T08:06:37;8.17;;;3.27;;
505;SDS011;551;48.524;9.056;2022-11-24T08:09:02;9.20;;;3.80;;
505;SDS011;551;48.524;9.056;2022-11-24T08:11:28;7.90;;;3.40;;
505;SDS011;551;48.524;9.056;2022-11-24T08:13:55;12.27;;;4.00;;
505;SDS011;551;48.524;9.056;2022-11-24T08:16:21;19.80;;;4.60;;
505;SDS011;551;48.524;9.056;2022-11-24T08:18:51;15.40;;;5.40;;
505;SDS011;551;48.524;9.056;2022-11-24T08:21:18;11.90;;;5.77;;
505;SDS011;551;48.524;9.056;2022-11-24T08:23:44;14.90;;;5.00;;
505;SDS011;551;48.524;9.056;2022-11-24T08:26:11;15.37;;;6.00;;
505;SDS011;551;48.524;9.056;2022-11-24T08:28:39;16.23;;;6.97;;
505;SDS011;551;48.524;9.056;2022-11-24T08:31:12;15.43;;;7.00;;
505;SDS011;551;48.524;9.056;2022-11-24T08:33:40;13.07;;;6.60;;
505;SDS011;551;48.524;9.056;2022-11-24T08:36:10;13.60;;;5.30;;
505;SDS011;551;48.524;9.056;2022-11-24T08:38:37;36.40;;;6.80;;
505;SDS011;551;48.524;9.056;2022-11-24T08:41:04;11.20;;;5.13;;
505;SDS011;551;48.524;9.056;2022-11-24T08:43:33;11.53;;;4.67;;
505;SDS011;551;48.524;9.056;2022-11-24T08:46:03;8.50;;;3.50;;
505;SDS011;551;48.524;9.056;2022-11-24T08:48:30;11.17;;;4.37;;
505;SDS011;551;48.524;9.056;2022-11-24T08:50:57;25.43;;;4.10;;
505;SDS011;551;48.524;9.056;2022-11-24T08:53:23;6.67;;;3.70;;
505;SDS011;551;48.524;9.056;2022-11-24T08:55:49;11.27;;;3.67;;
505;SDS011;551;48.524;9.056;2022-11-24T08:58:15;8.73;;;3.30;;
505;SDS011;551;48.524;9.056;2022-11-24T09:00:41;4.57;;;2.37;;
505;SDS011;551;48.524;9.056;2022-11-24T09:03:08;6.73;;;3.70;;
505;SDS011;551;48.524;9.056;2022-11-24T09:05:35;8.97;;;2.60;;
505;SDS011;551;48.524;9.056;2022-11-24T09:08:01;10.57;;;2.57;;
505;SDS011;551;48.524;9.056;2022-11-24T09:10:27;6.70;;;2.27;;
505;SDS011;551;48.524;9.056;2022-11-24T09:12:52;8.53;;;2.87;;
505;SDS011;551;48.524;9.056;2022-11-24T09:15:18;13.97;;;2.70;;
505;SDS011;551;48.524;9.056;2022-11-24T09:17:44;14.30;;;3.20;;
505;SDS011;551;48.524;9.056;2022-11-24T09:20:10;8.40;;;2.90;;
505;SDS011;551;48.524;9.056;2022-11-24T09:22:36;4.27;;;2.70;;
505;SDS011;551;48.524;9.056;2022-11-24T09:25:02;5.67;;;3.10;;
505;SDS011;551;48.524;9.056;2022-11-24T09:27:29;7.20;;;3.57;;
505;SDS011;551;48.524;9.056;2022-11-24T09:29:55;4.90;;;3.03;;
505;SDS011;551;48.524;9.056;2022-11-24T09:32:20;5.38;;;3.22;;
505;SDS011;551;48.524;9.056;2022-11-24T09:34:46;8.13;;;3.70;;
505;SDS011;551;48.524;9.056;2022-11-24T09:37:11;6.50;;;2.57;;
505;SDS011;551;48.524;9.056;2022-11-24T09:39:37;6.23;;;3.27;;
505;SDS011;551;48.524;9.056;2022-11-24T09:42:11;4.13;;;2.00;;
505;SDS011;551;48.524;9.056;2022-11-24T09:44:46;10.60;;;3.70;;
505;SDS011;551;48.524;9.056;2022-11-24T09:47:42;12.90;;;4.00;;
505;SDS011;551;48.524;9.056;2022-11-24T09:50:25;9.77;;;3.20;;
505;SDS011;551;48.524;9.056;2022-11-24T09:53:02;5.10;;;2.20;;
505;SDS011;551;48.524;9.056;2022-11-24T09:55:39;7.03;;;2.67;;
505;SDS011;551;48.524;9.056;2022-11-24T09:58:39;4.40;;;2.50;;
505;SDS011;551;48.524;9.056;2022-11-24T10:01:19;5.33;;;2.00;;
505;SDS011;551;48.524;9.056;2022-11-24T10:03:49;5.03;;;2.50;;
505;SDS011;551;48.524;9.056;2022-11-24T10:06:29;4.77;;;2.50;;
505;SDS011;551;48.524;9.056;2022-11-24T10:09:23;2.50;;;1.83;;
505;SDS011;551;48.524;9.056;2022-11-24T10:12:14;4.97;;;2.53;;
505;SDS011;551;48.524;9.056;2022-11-24T10:23:00;5.03;;;1.70;;
505;SDS011;551;48.524;9.056;2022-11-24T10:25:42;1.53;;;1.10;;
505;SDS011;551;48.524;9.056;2022-11-24T10:28:16;6.43;;;1.50;;
505;SDS011;551;48.524;9.056;2022-11-24T10:30:42;1.23;;;1.10;;
505;SDS011;551;48.524;9.056;2022-11-24T10:33:20;2.67;;;1.70;;
505;SDS011;551;48.524;9.056;2022-11-24T10:35:50;1.87;;;1.50;;
505;SDS011;551;48.524;9.056;2022-11-24T10:38:41;1.20;;;1.10;;
505;SDS011;551;48.524;9.056;2022-11-24T10:41:18;1.87;;;1.30;;
505;SDS011;551;48.524;9.056;2022-11-24T10:43:47;1.80;;;1.30;;
505;SDS011;551;48.524;9.056;2022-11-24T10:48:42;2.50;;;1.17;;
505;SDS011;551;48.524;9.056;2022-11-24T10:53:52;2.80;;;1.20;;
505;SDS011;551;48.524;9.056;2022-11-24T10:56:25;4.33;;;1.50;;
505;SDS011;551;48.524;9.056;2022-11-24T10:58:50;1.50;;;1.40;;
505;SDS011;551;48.524;9.056;2022-11-24T11:06:20;3.90;;;1.40;;
505;SDS011;551;48.524;9.056;2022-11-24T11:08:47;2.10;;;1.53;;
505;SDS011;551;48.524;9.056;2022-11-24T11:11:17;3.00;;;1.50;;
505;SDS011;551;48.524;9.056;2022-11-24T11:13:51;6.13;;;1.67;;
505;SDS011;551;48.524;9.056;2022-11-24T11:22:12;2.27;;;1.50;;
505;SDS011;551;48.524;9.056;2022-11-24T11:24:42;2.80;;;1.40;;
505;SDS011;551;48.524;9.056;2022-11-24T11:27:20;4.03;;;2.43;;
505;SDS011;551;48.524;9.056;2022-11-24T11:29:50;4.73;;;2.07;;
505;SDS011;551;48.524;9.056;2022-11-24T11:34:46;4.57;;;2.00;;
505;SDS011;551;48.524;9.056;2022-11-24T11:37:13;5.07;;;2.40;;
505;SDS011;551;48.524;9.056;2022-11-24T11:39:40;2.70;;;2.10;;
505;SDS011;551;48.524;9.056;2022-11-24T11:47:55;9.57;;;2.37;;
505;SDS011;551;48.524;9.056;2022-11-24T11:50:23;7.00;;;2.20;;
505;SDS011;551;48.524;9.056;2022-11-24T11:55:54;3.67;;;2.10;;
505;SDS011;551;48.524;9.056;2022-11-24T11:58:48;2.43;;;1.73;;
505;SDS011;551;48.524;9.056;2022-11-24T12:07:23;6.43;;;2.37;;
505;SDS011;551;48.524;9.056;2022-11-24T12:10:23;6.40;;;1.53;;
505;SDS011;551;48.524;9.056;2022-11-24T12:15:47;2.93;;;1.80;;
505;SDS011;551;48.524;9.056;2022-11-24T12:21:09;3.80;;;1.70;;
505;SDS011;551;48.524;9.056;2022-11-24T12:24:00;9.30;;;1.83;;
505;SDS011;551;48.524;9.056;2022-11-24T12:26:42;2.20;;;1.33;;
505;SDS011;551;48.524;9.056;2022-11-24T12:32:33;4.47;;;2.10;;
505;SDS011;551;48.524;9.056;2022-11-24T12:40:34;6.93;;;1.90;;
505;SDS011;551;48.524;9.056;2022-11-24T12:46:08;5.03;;;1.90;;
505;SDS011;551;48.524;9.056;2022-11-24T12:51:54;5.37;;;2.73;;
505;SDS011;551;48.524;9.056;2022-11-24T12:54:43;2.07;;;1.57;;
505;SDS011;551;48.524;9.056;2022-11-24T12:57:12;5.37;;;1.90;;
505;SDS011;551;48.524;9.056;2022-11-24T13:05:23;5.53;;;2.00;;
505;SDS011;551;48.524;9.056;2022-11-24T13:07:56;2.57;;;1.60;;
505;SDS011;551;48.524;9.056;2022-11-24T13:12:56;5.43;;;1.53;;
505;SDS011;551;48.524;9.056;2022-11-24T13:15:22;10.73;;;1.43;;
505;SDS011;551;48.524;9.056;2022-11-24T13:17:48;3.80;;;1.80;;
505;SDS011;551;48.524;9.056;2022-11-24T13:22:47;7.60;;;2.00;;
505;SDS011;551;48.524;9.056;2022-11-24T13:25:35;4.43;;;1.67;;
505;SDS011;551;48.524;9.056;2022-11-24T13:28:02;4.77;;;1.87;;
505;SDS011;551;48.524;9.056;2022-11-24T13:33:17;3.63;;;1.73;;
505;SDS011;551;48.524;9.056;2022-11-24T13:38:38;6.77;;;2.87;;
505;SDS011;551;48.524;9.056;2022-11-24T13:41:10;5.53;;;2.20;;
505;SDS011;551;48.524;9.056;2022-11-24T13:47:00;4.63;;;1.60;;
505;SDS011;551;48.524;9.056;2022-11-24T13:49:38;11.30;;;2.80;;
505;SDS011;551;48.524;9.056;2022-11-24T13:57:42;9.40;;;2.03;;
505;SDS011;551;48.524;9.056;2022-11-24T14:02:44;13.40;;;2.20;;
505;SDS011;551;48.524;9.056;2022-11-24T14:05:14;4.73;;;1.73;;
505;SDS011;551;48.524;9.056;2022-11-24T14:07:41;10.00;;;2.03;;
505;SDS011;551;48.524;9.056;2022-11-24T14:10:13;6.70;;;2.00;;
505;SDS011;551;48.524;9.056;2022-11-24T14:12:40;2.43;;;1.80;;
505;SDS011;551;48.524;9.056;2022-11-24T14:15:20;5.23;;;2.10;;
505;SDS011;551;48.524;9.056;2022-11-24T14:17:50;5.50;;;2.07;;
505;SDS011;551;48.524;9.056;2022-11-24T14:20:23;4.20;;;1.73;;
505;SDS011;551;48.524;9.056;2022-11-24T14:22:50;7.83;;;1.60;;
505;SDS011;551;48.524;9.056;2022-11-24T14:25:20;11.80;;;2.20;;
505;SDS011;551;48.524;9.056;2022-11-24T14:27:51;2.50;;;1.40;;
505;SDS011;551;48.524;9.056;2022-11-24T14:30:19;4.87;;;1.70;;
505;SDS011;551;48.524;9.056;2022-11-24T14:32:56;6.57;;;1.90;;
505;SDS011;551;48.524;9.056;2022-11-24T14:35:28;5.60;;;2.17;;
505;SDS011;551;48.524;9.056;2022-11-24T14:37:56;4.63;;;2.20;;
505;SDS011;551;48.524;9.056;2022-11-24T14:40:38;5.97;;;2.17;;
505;SDS011;551;48.524;9.056;2022-11-24T14:43:14;6.33;;;2.10;;
505;SDS011;551;48.524;9.056;2022-11-24T14:45:49;4.90;;;2.00;;
505;SDS011;551;48.524;9.056;2022-11-24T14:48:17;5.03;;;2.67;;
505;SDS011;551;48.524;9.056;2022-11-24T14:50:48;8.83;;;2.30;;
505;SDS011;551;48.524;9.056;2022-11-24T14:53:14;3.60;;;1.63;;
505;SDS011;551;48.524;9.056;2022-11-24T14:56:04;5.47;;;3.50;;
505;SDS011;551;48.524;9.056;2022-11-24T14:58:32;9.40;;;2.65;;
505;SDS011;551;48.524;9.056;2022-11-24T15:01:09;11.30;;;2.70;;
505;SDS011;551;48.524;9.056;2022-11-24T15:03:42;10.73;;;2.67;;
505;SDS011;551;48.524;9.056;2022-11-24T15:06:10;7.63;;;2.63;;
505;SDS011;551;48.524;9.056;2022-11-24T15:08:42;5.37;;;2.17;;
505;SDS011;551;48.524;9.056;2022-11-24T15:11:10;5.40;;;2.70;;
505;SDS011;551;48.524;9.056;2022-11-24T15:13:37;7.57;;;2.33;;
505;SDS011;551;48.524;9.056;2022-11-24T15:16:15;8.60;;;2.90;;
505;SDS011;551;48.524;9.056;2022-11-24T15:18:44;9.83;;;3.03;;
505;SDS011;551;48.524;9.056;2022-11-24T15:21:12;8.23;;;3.13;;
505;SDS011;551;48.524;9.056;2022-11-24T15:23:38;10.83;;;3.33;;
505;SDS011;551;48.524;9.056;2022-11-24T15:28:35;7.40;;;2.80;;
505;SDS011;551;48.524;9.056;2022-11-24T15:31:04;8.23;;;3.20;;
505;SDS011;551;48.524;9.056;2022-11-24T15:33:34;12.73;;;2.90;;
505;SDS011;551;48.524;9.056;2022-11-24T15:35:59;4.00;;;3.03;;
505;SDS011;551;48.524;9.056;2022-11-24T15:38:25;10.90;;;3.10;;
505;SDS011;551;48.524;9.056;2022-11-24T15:40:51;11.20;;;2.37;;
505;SDS011;551;48.524;9.056;2022-11-24T15:43:35;8.17;;;3.47;;
505;SDS011;551;48.524;9.056;2022-11-24T15:46:05;11.83;;;3.30;;
505;SDS011;551;48.524;9.056;2022-11-24T15:48:32;11.73;;;3.30;;
505;SDS011;551;48.524;9.056;2022-11-24T15:50:58;8.73;;;3.53;;
505;SDS011;551;48.524;9.056;2022-11-24T15:53:32;10.03;;;3.23;;
505;SDS011;551;48.524;9.056;2022-11-24T15:56:01;5.43;;;2.90;;
505;SDS011;551;48.524;9.056;2022-11-24T15:58:29;12.30;;;3.57;;
505;SDS011;551;48.524;9.056;2022-11-24T16:00:54;9.30;;;4.10;;
505;SDS011;551;48.524;9.056;2022-11-24T16:03:21;13.00;;;3.63;;
505;SDS011;551;48.524;9.056;2022-11-24T16:05:47;11.20;;;2.90;;
505;SDS011;551;48.524;9.056;2022-11-24T16:08:16;21.63;;;3.50;;
505;SDS011;551;48.524;9.056;2022-11-24T16:10:41;4.23;;;2.47;;
505;SDS011;551;48.524;9.056;2022-11-24T16:13:07;14.10;;;3.20;;
505;SDS011;551;48.524;9.056;2022-11-24T16:15:34;20.80;;;4.20;;
505;SDS011;551;48.524;9.056;2022-11-24T16:17:59;8.67;;;3.50;;
505;SDS011;551;48.524;9.056;2022-11-24T16:20:25;9.13;;;4.00;;
505;SDS011;551;48.524;9.056;2022-11-24T16:22:50;12.63;;;4.00;;
505;SDS011;551;48.524;9.056;2022-11-24T16:25:16;14.90;;;4.10;;
505;SDS011;551;48.524;9.056;2022-11-24T16:27:42;11.20;;;4.27;;
505;SDS011;551;48.524;9.056;2022-11-24T16:30:07;7.57;;;3.70;;
505;SDS011;551;48.524;9.056;2022-11-24T16:32:34;12.03;;;4.53;;
505;SDS011;551;48.524;9.056;2022-11-24T16:35:00;9.83;;;3.80;;
505;SDS011;551;48.524;9.056;2022-11-24T16:37:25;10.60;;;4.27;;
505;SDS011;551;48.524;9.056;2022-11-24T16:39:51;12.87;;;4.40;;
505;SDS011;551;48.524;9.056;2022-11-24T16:42:16;11.97;;;5.40;;
505;SDS011;551;48.524;9.056;2022-11-24T16:44:42;13.30;;;4.20;;
505;SDS011;551;48.524;9.056;2022-11-24T16:47:08;13.00;;;5.50;;
505;SDS011;551;48.524;9.056;2022-11-24T16:49:33;12.73;;;4.20;;
505;SDS011;551;48.524;9.056;2022-11-24T16:51:59;10.30;;;4.73;;
505;SDS011;551;48.524;9.056;2022-11-24T16:54:24;14.43;;;5.77;;
505;SDS011;551;48.524;9.056;2022-11-24T16:56:50;13.50;;;6.07;;
505;SDS011;551;48.524;9.056;2022-11-24T16:59:16;12.43;;;4.73;;
505;SDS011;551;48.524;9.056;2022-11-24T17:01:42;14.73;;;7.37;;
505;SDS011;551;48.524;9.056;2022-11-24T17:04:10;13.47;;;5.87;;
505;SDS011;551;48.524;9.056;2022-11-24T17:06:36;13.57;;;5.60;;
505;SDS011;551;48.524;9.056;2022-11-24T17:09:02;21.67;;;6.00;;
505;SDS011;551;48.524;9.056;2022-11-24T17:11:28;7.87;;;4.63;;
505;SDS011;551;48.524;9.056;2022-11-24T17:13:54;10.00;;;4.37;;
505;SDS011;551;48.524;9.056;2022-11-24T17:16:21;7.90;;;4.67;;
505;SDS011;551;48.524;9.056;2022-11-24T17:18:47;18.10;;;6.80;;
505;SDS011;551;48.524;9.056;2022-11-24T17:21:18;11.37;;;5.70;;
505;SDS011;551;48.524;9.056;2022-11-24T17:23:45;19.17;;;7.60;;
505;SDS011;551;48.524;9.056;2022-11-24T17:26:14;10.57;;;5.33;;
505;SDS011;551;48.524;9.056;2022-11-24T17:28:41;19.07;;;4.93;;